createdAt,value
2023-05-21T00:01:08.002Z,4.72
2023-05-21T00:03:35.966Z,4.30
2023-05-21T00:06:03.817Z,4.25
2023-05-21T00:08:31.041Z,3.97
2023-05-21T00:10:57.731Z,4.22
2023-05-21T00:13:24.337Z,4.38
2023-05-21T00:15:52.337Z,4.28
2023-05-21T00:18:19.031Z,4.45
2023-05-21T00:20:45.813Z,3.95
2023-05-21T00:23:12.720Z,3.92
2023-05-21T00:25:39.348Z,4.45
2023-05-21T00:28:05.963Z,4.20
2023-05-21T00:30:32.579Z,3.70
2023-05-21T00:33:03.006Z,4.03
2023-05-21T00:35:30.209Z,4.38
2023-05-21T00:37:57.279Z,4.30
2023-05-21T00:40:24.172Z,3.97
2023-05-21T00:42:50.759Z,4.20
2023-05-21T00:45:17.407Z,4.15
2023-05-21T00:47:45.915Z,4.25
2023-05-21T00:50:15.176Z,4.82
2023-05-21T00:52:45.788Z,4.40
2023-05-21T00:55:12.789Z,4.32
2023-05-21T00:57:39.856Z,4.20
2023-05-21T01:00:08.909Z,4.32
2023-05-21T01:02:37.311Z,4.40
2023-05-21T01:05:06.069Z,3.95
2023-05-21T01:07:35.735Z,4.00
2023-05-21T01:10:04.063Z,4.13
2023-05-21T01:12:32.816Z,3.88
2023-05-21T01:15:00.914Z,3.65
2023-05-21T01:17:29.708Z,4.72
2023-05-21T01:19:58.210Z,4.25
2023-05-21T01:22:26.041Z,4.75
2023-05-21T01:24:55.565Z,3.88
2023-05-21T01:29:49.539Z,4.43
2023-05-21T01:32:26.693Z,4.00
2023-05-21T01:34:59.709Z,4.53
2023-05-21T01:37:31.430Z,4.30
2023-05-21T01:40:05.484Z,4.25
2023-05-21T01:42:34.799Z,4.25
2023-05-21T01:45:06.207Z,4.03
2023-05-21T01:47:33.314Z,4.70
2023-05-21T01:50:01.451Z,4.68
2023-05-21T01:52:28.110Z,4.03
2023-05-21T01:54:56.451Z,4.63
2023-05-21T01:57:24.539Z,4.45
2023-05-21T01:59:53.334Z,4.80
2023-05-21T02:02:20.140Z,5.80
2023-05-21T02:04:46.835Z,4.68
2023-05-21T02:07:15.134Z,4.40
2023-05-21T02:09:41.804Z,4.32
2023-05-21T02:12:08.628Z,4.75
2023-05-21T02:14:38.379Z,4.07
2023-05-21T02:17:05.753Z,4.57
2023-05-21T02:19:32.563Z,4.43
2023-05-21T02:21:59.322Z,4.40
2023-05-21T02:24:25.961Z,4.20
2023-05-21T02:26:52.977Z,3.83
2023-05-21T02:29:19.685Z,4.55
2023-05-21T02:31:47.715Z,4.03
2023-05-21T02:34:14.372Z,4.90
2023-05-21T02:36:41.621Z,4.22
2023-05-21T02:39:08.424Z,3.80
2023-05-21T02:41:35.124Z,4.70
2023-05-21T02:44:01.810Z,4.40
2023-05-21T02:46:28.616Z,4.75
2023-05-21T02:48:56.790Z,4.50
2023-05-21T02:51:23.522Z,4.00
2023-05-21T02:53:50.196Z,4.43
2023-05-21T02:56:17.382Z,3.70
2023-05-21T02:58:44.199Z,4.28
2023-05-21T03:01:10.945Z,4.68
2023-05-21T03:03:37.813Z,5.05
2023-05-21T03:06:06.062Z,4.55
2023-05-21T03:08:32.932Z,4.25
2023-05-21T03:10:59.838Z,4.38
2023-05-21T03:13:26.575Z,4.80
2023-05-21T03:15:56.426Z,4.20
2023-05-21T03:18:23.127Z,4.05
2023-05-21T03:20:49.889Z,4.57
2023-05-21T03:23:18.053Z,4.40
2023-05-21T03:25:46.098Z,4.53
2023-05-21T03:28:12.878Z,4.63
2023-05-21T03:30:39.576Z,4.28
2023-05-21T03:33:06.591Z,5.10
2023-05-21T03:35:33.567Z,4.57
2023-05-21T03:38:00.542Z,3.80
2023-05-21T03:40:28.593Z,4.80
2023-05-21T03:42:55.349Z,4.57
2023-05-21T03:45:22.129Z,5.10
2023-05-21T03:47:49.432Z,5.05
2023-05-21T03:50:16.895Z,4.50
2023-05-21T03:52:43.587Z,4.65
2023-05-21T03:55:10.391Z,4.68
2023-05-21T03:57:39.315Z,3.85
2023-05-21T04:00:08.933Z,4.90
2023-05-21T04:02:35.922Z,4.40
2023-05-21T04:05:03.622Z,4.68
2023-05-21T04:07:30.306Z,4.68
2023-05-21T04:09:57.004Z,4.22
2023-05-21T04:12:23.677Z,4.95
2023-05-21T04:14:51.706Z,3.92
2023-05-21T04:17:19.239Z,4.38
2023-05-21T04:19:45.912Z,5.60
2023-05-21T04:22:12.566Z,5.10
2023-05-21T04:24:39.265Z,4.97
2023-05-21T04:27:06.058Z,4.43
2023-05-21T04:29:32.702Z,4.78
2023-05-21T04:32:00.737Z,4.70
2023-05-21T04:34:27.368Z,4.57
2023-05-21T04:36:54.397Z,4.68
2023-05-21T04:39:21.023Z,5.13
2023-05-21T04:41:48.462Z,5.10
2023-05-21T04:44:15.447Z,3.97
2023-05-21T04:46:42.735Z,4.93
2023-05-21T04:49:11.583Z,4.20
2023-05-21T04:51:38.249Z,5.18
2023-05-21T04:54:04.942Z,4.65
2023-05-21T04:56:32.018Z,4.32
2023-05-21T04:58:58.956Z,5.28
2023-05-21T05:01:27.256Z,4.47
2023-05-21T05:03:54.264Z,4.80
2023-05-21T05:06:22.366Z,5.00
2023-05-21T05:08:49.332Z,4.22
2023-05-21T05:11:15.972Z,4.38
2023-05-21T05:13:42.868Z,4.78
2023-05-21T05:16:09.750Z,4.88
2023-05-21T05:18:36.703Z,4.70
2023-05-21T05:21:03.736Z,4.72
2023-05-21T05:23:31.725Z,5.13
2023-05-21T05:25:58.347Z,4.93
2023-05-21T05:28:24.974Z,5.50
2023-05-21T05:30:51.684Z,5.13
2023-05-21T05:33:18.382Z,5.68
2023-05-21T05:35:45.054Z,5.40
2023-05-21T05:38:11.759Z,5.15
2023-05-21T05:40:39.852Z,4.38
2023-05-21T05:43:06.701Z,5.43
2023-05-21T05:45:33.383Z,4.85
2023-05-21T05:48:00.048Z,4.90
2023-05-21T05:50:27.583Z,5.47
2023-05-21T05:52:54.208Z,5.75
2023-05-21T05:55:22.026Z,5.80
2023-05-21T05:57:50.059Z,4.70
2023-05-21T06:00:17.579Z,5.90
2023-05-21T06:02:44.354Z,4.63
2023-05-21T06:05:11.453Z,4.82
2023-05-21T06:07:38.764Z,4.70
2023-05-21T06:10:06.256Z,4.43
2023-05-21T06:12:32.879Z,5.72
2023-05-21T06:15:01.783Z,6.18
2023-05-21T06:17:28.498Z,5.13
2023-05-21T06:19:55.224Z,4.97
2023-05-21T06:22:24.849Z,6.05
2023-05-21T06:24:52.609Z,6.03
2023-05-21T06:27:19.251Z,5.95
2023-05-21T06:29:45.890Z,6.68
2023-05-21T06:32:13.879Z,6.32
2023-05-21T06:34:40.991Z,5.30
2023-05-21T06:37:08.000Z,5.60
2023-05-21T06:39:34.664Z,6.32
2023-05-21T06:42:01.851Z,5.82
2023-05-21T06:44:28.594Z,5.68
2023-05-21T06:46:55.443Z,6.15
2023-05-21T06:49:23.460Z,6.15
2023-05-21T06:51:50.127Z,6.07
2023-05-21T06:54:16.934Z,5.90
2023-05-21T06:56:43.571Z,5.30
2023-05-21T06:59:14.566Z,5.00
2023-05-21T07:01:42.670Z,4.82
2023-05-21T07:04:09.646Z,4.82
2023-05-21T07:06:38.089Z,4.47
2023-05-21T07:09:05.992Z,4.63
2023-05-21T07:11:32.811Z,6.40
2023-05-21T07:14:03.962Z,5.18
2023-05-21T07:16:30.658Z,5.28
2023-05-21T07:18:57.429Z,5.50
2023-05-21T07:21:24.370Z,5.68
2023-05-21T07:23:52.515Z,4.70
2023-05-21T07:26:19.146Z,5.13
2023-05-21T07:28:46.013Z,6.40
2023-05-21T07:31:13.174Z,6.60
2023-05-21T07:33:40.057Z,6.20
2023-05-21T07:36:07.160Z,5.22
2023-05-21T07:38:34.631Z,5.40
2023-05-21T07:41:02.691Z,4.93
2023-05-21T07:43:29.345Z,4.95
2023-05-21T07:45:56.054Z,5.15
2023-05-21T07:48:22.978Z,6.10
2023-05-21T07:50:50.116Z,6.10
2023-05-21T07:53:16.814Z,6.43
2023-05-21T07:55:47.729Z,6.45
2023-05-21T07:58:17.696Z,5.32
2023-05-21T08:00:46.893Z,5.20
2023-05-21T08:03:16.511Z,6.32
2023-05-21T08:05:44.881Z,4.75
2023-05-21T08:08:12.869Z,5.88
2023-05-21T08:10:39.542Z,5.50
2023-05-21T08:13:06.308Z,5.38
2023-05-21T08:15:34.463Z,5.68
2023-05-21T08:18:01.284Z,5.22
2023-05-21T08:20:29.081Z,5.70
2023-05-21T08:22:55.755Z,4.93
2023-05-21T08:25:25.113Z,5.43
2023-05-21T08:30:19.517Z,5.53
2023-05-21T08:32:47.642Z,5.20
2023-05-21T08:35:14.353Z,4.95
2023-05-21T08:37:41.070Z,5.20
2023-05-21T08:40:09.810Z,5.38
2023-05-21T08:42:42.389Z,5.13
2023-05-21T08:45:11.675Z,6.07
2023-05-21T08:47:41.725Z,5.57
2023-05-21T08:50:11.806Z,5.38
2023-05-21T08:52:38.534Z,4.65
2023-05-21T08:55:06.278Z,5.50
2023-05-21T08:57:33.370Z,5.18
2023-05-21T09:00:01.921Z,5.63
2023-05-21T09:02:34.242Z,5.18
2023-05-21T09:05:03.246Z,5.15
2023-05-21T09:07:34.372Z,5.32
2023-05-21T09:10:05.139Z,5.93
2023-05-21T09:12:32.069Z,5.35
2023-05-21T09:15:00.376Z,5.25
2023-05-21T09:17:27.339Z,5.30
2023-05-21T09:20:14.672Z,4.60
2023-05-21T09:22:44.875Z,5.10
2023-05-21T09:25:12.579Z,4.78
2023-05-21T09:27:39.994Z,4.95
2023-05-21T09:30:10.940Z,5.28
2023-05-21T09:32:38.114Z,4.72
2023-05-21T09:35:09.652Z,4.28
2023-05-21T09:37:40.190Z,4.82
2023-05-21T09:40:16.057Z,5.25
2023-05-21T09:42:45.634Z,3.97
2023-05-21T09:45:12.776Z,4.93
2023-05-21T09:47:43.716Z,5.05
2023-05-21T09:50:11.634Z,4.85
2023-05-21T09:52:41.919Z,5.07
2023-05-21T09:55:12.647Z,5.60
2023-05-21T09:57:44.561Z,4.60
2023-05-21T10:00:21.347Z,5.00
2023-05-21T10:02:49.120Z,4.95
2023-05-21T10:05:17.148Z,4.97
2023-05-21T10:07:52.786Z,5.22
2023-05-21T10:10:21.830Z,5.00
2023-05-21T10:12:54.694Z,5.40
2023-05-21T10:15:24.999Z,4.80
2023-05-21T10:17:52.433Z,5.03
2023-05-21T10:20:20.867Z,5.25
2023-05-21T10:22:47.977Z,4.83
2023-05-21T10:25:15.694Z,5.13
2023-05-21T10:27:42.522Z,5.82
2023-05-21T10:30:12.179Z,5.53
2023-05-21T10:32:40.652Z,5.47
2023-05-21T10:35:09.253Z,5.50
2023-05-21T10:37:36.618Z,5.07
2023-05-21T10:40:04.558Z,5.07
2023-05-21T10:43:13.067Z,5.00
2023-05-21T10:45:59.325Z,5.13
2023-05-21T10:48:40.889Z,4.53
2023-05-21T10:51:18.754Z,4.82
2023-05-21T10:54:16.908Z,4.82
2023-05-21T10:56:48.897Z,4.28
2023-05-21T10:59:22.414Z,5.32
2023-05-21T11:01:53.112Z,4.65
2023-05-21T11:04:22.693Z,4.93
2023-05-21T11:06:49.716Z,5.13
2023-05-21T11:09:16.413Z,4.50
2023-05-21T11:11:46.270Z,4.90
2023-05-21T11:14:36.803Z,4.15
2023-05-21T11:17:11.148Z,4.90
2023-05-21T11:19:39.595Z,5.50
2023-05-21T11:22:11.335Z,4.20
2023-05-21T11:24:39.636Z,4.88
2023-05-21T11:27:07.090Z,4.00
2023-05-21T11:29:44.940Z,4.70
2023-05-21T11:32:15.298Z,4.85
2023-05-21T11:34:45.965Z,4.68
2023-05-21T11:37:25.113Z,4.30
2023-05-21T11:39:51.843Z,4.97
2023-05-21T11:42:28.687Z,5.60
2023-05-21T11:44:58.053Z,4.80
2023-05-21T11:47:32.232Z,4.95
2023-05-21T11:50:00.572Z,5.07
2023-05-21T11:52:29.795Z,4.63
2023-05-21T11:54:57.568Z,4.68
2023-05-21T11:57:29.151Z,5.05
2023-05-21T11:59:58.465Z,4.47
2023-05-21T12:02:30.777Z,4.93
2023-05-21T12:05:00.786Z,5.47
2023-05-21T12:07:29.737Z,5.75
2023-05-21T12:09:56.652Z,5.20
2023-05-21T12:12:27.184Z,4.65
2023-05-21T12:14:56.071Z,5.18
2023-05-21T12:17:24.618Z,5.57
2023-05-21T12:20:01.718Z,5.10
2023-05-21T12:22:29.804Z,5.93
2023-05-21T12:24:58.268Z,4.82
2023-05-21T12:27:25.033Z,5.68
2023-05-21T12:29:53.102Z,5.50
2023-05-21T12:32:21.016Z,5.40
2023-05-21T12:34:49.713Z,5.85
2023-05-21T12:37:21.922Z,5.57
2023-05-21T12:39:49.841Z,5.53
2023-05-21T12:42:17.279Z,5.80
2023-05-21T12:44:45.266Z,5.65
2023-05-21T12:47:14.920Z,5.28
2023-05-21T12:49:42.596Z,5.38
2023-05-21T12:52:10.705Z,5.00
2023-05-21T12:54:40.959Z,5.18
2023-05-21T12:57:09.159Z,5.75
2023-05-21T12:59:49.712Z,5.28
2023-05-21T13:02:19.790Z,5.45
2023-05-21T13:04:47.223Z,6.30
2023-05-21T13:07:14.328Z,6.30
2023-05-21T13:09:44.925Z,5.55
2023-05-21T13:12:12.515Z,5.20
2023-05-21T13:14:39.371Z,5.43
2023-05-21T13:17:06.538Z,5.20
2023-05-21T13:19:33.215Z,5.10
2023-05-21T13:21:59.881Z,5.45
2023-05-21T13:24:26.557Z,5.13
2023-05-21T13:26:54.746Z,5.45
2023-05-21T13:29:21.417Z,5.88
2023-05-21T13:31:48.049Z,6.15
2023-05-21T13:34:14.736Z,6.25
2023-05-21T13:36:41.475Z,6.45
2023-05-21T13:39:08.179Z,5.38
2023-05-21T13:41:34.888Z,5.43
2023-05-21T13:44:03.022Z,5.72
2023-05-21T13:46:29.983Z,5.13
2023-05-21T13:48:57.002Z,4.80
2023-05-21T13:51:38.119Z,5.53
2023-05-21T13:54:05.948Z,5.82
2023-05-21T13:56:33.812Z,4.78
2023-05-21T13:59:01.570Z,5.68
2023-05-21T14:01:29.744Z,5.03
2023-05-21T14:03:56.515Z,4.72
2023-05-21T14:06:23.233Z,4.90
2023-05-21T14:08:49.923Z,5.50
2023-05-21T14:11:16.592Z,4.97
2023-05-21T14:13:43.315Z,4.68
2023-05-21T14:16:10.037Z,4.90
2023-05-21T14:18:38.102Z,4.80
2023-05-21T14:21:04.810Z,4.90
2023-05-21T14:23:31.542Z,5.30
2023-05-21T14:25:58.324Z,4.97
2023-05-21T14:28:25.124Z,5.15
2023-05-21T14:30:52.069Z,5.35
2023-05-21T14:33:18.852Z,5.18
2023-05-21T14:35:47.920Z,4.68
2023-05-21T14:38:14.612Z,5.10
2023-05-21T14:40:41.765Z,5.30
2023-05-21T14:43:08.535Z,4.90
2023-05-21T14:45:35.661Z,4.82
2023-05-21T14:48:08.218Z,4.85
2023-05-21T14:50:35.572Z,4.75
2023-05-21T14:53:05.987Z,4.47
2023-05-21T14:55:37.197Z,4.70
2023-05-21T14:58:04.428Z,4.55
2023-05-21T15:00:31.639Z,5.07
2023-05-21T15:02:58.647Z,4.78
2023-05-21T15:05:27.624Z,4.57
2023-05-21T15:07:56.040Z,4.47
2023-05-21T15:10:24.526Z,4.57
2023-05-21T15:12:51.347Z,4.95
2023-05-21T15:15:20.718Z,4.68
2023-05-21T15:17:48.112Z,4.18
2023-05-21T15:20:15.018Z,5.05
2023-05-21T15:22:41.891Z,4.50
2023-05-21T15:25:12.067Z,4.35
2023-05-21T15:27:40.184Z,4.45
2023-05-21T15:30:07.865Z,5.30
2023-05-21T15:32:34.573Z,4.47
2023-05-21T15:35:01.524Z,4.50
2023-05-21T15:37:33.157Z,4.30
2023-05-21T15:39:59.999Z,3.97
2023-05-21T15:42:26.727Z,4.13
2023-05-21T15:44:54.760Z,4.32
2023-05-21T15:47:21.453Z,4.30
2023-05-21T15:49:48.158Z,4.40
2023-05-21T15:52:14.795Z,4.50
2023-05-21T15:54:41.469Z,4.07
2023-05-21T15:57:08.141Z,4.47
2023-05-21T15:59:34.798Z,5.07
2023-05-21T16:02:02.819Z,4.68
2023-05-21T16:04:29.530Z,4.43
2023-05-21T16:06:56.163Z,4.47
2023-05-21T16:09:22.751Z,4.50
2023-05-21T16:11:49.345Z,4.45
2023-05-21T16:14:15.984Z,4.82
2023-05-21T16:16:42.741Z,3.97
2023-05-21T16:19:10.912Z,4.40
2023-05-21T16:21:39.587Z,4.85
2023-05-21T16:24:06.753Z,4.30
2023-05-21T16:26:33.358Z,4.80
2023-05-21T16:29:02.283Z,5.13
2023-05-21T16:31:29.213Z,4.50
2023-05-21T16:33:55.903Z,5.25
2023-05-21T16:36:23.910Z,4.70
2023-05-21T16:38:50.554Z,4.20
2023-05-21T16:41:17.213Z,4.63
2023-05-21T16:43:43.914Z,4.75
2023-05-21T16:46:10.739Z,4.78
2023-05-21T16:48:39.291Z,5.57
2023-05-21T16:51:06.152Z,4.70
2023-05-21T16:53:34.280Z,4.90
2023-05-21T16:56:00.936Z,5.05
2023-05-21T16:58:27.618Z,5.50
2023-05-21T17:00:54.324Z,5.28
2023-05-21T17:03:21.265Z,5.07
2023-05-21T17:05:48.103Z,4.82
2023-05-21T17:08:14.783Z,5.50
2023-05-21T17:10:42.770Z,4.22
2023-05-21T17:13:21.681Z,4.70
2023-05-21T17:15:50.680Z,5.43
2023-05-21T17:18:17.622Z,5.38
2023-05-21T17:20:44.258Z,5.60
2023-05-21T17:23:11.882Z,4.90
2023-05-21T17:25:39.244Z,5.05
2023-05-21T17:28:07.752Z,6.80
2023-05-21T17:30:34.403Z,5.82
2023-05-21T17:33:03.615Z,5.65
2023-05-21T17:35:30.676Z,6.28
2023-05-21T17:37:57.433Z,5.55
2023-05-21T17:40:25.032Z,5.82
2023-05-21T17:42:52.148Z,5.82
2023-05-21T17:45:22.823Z,5.38
2023-05-21T17:47:49.593Z,5.93
2023-05-21T17:50:16.555Z,5.68
2023-05-21T17:52:43.187Z,5.47
2023-05-21T17:55:10.535Z,5.95
2023-05-21T17:57:37.382Z,4.97
2023-05-21T18:00:06.634Z,5.18
2023-05-21T18:05:01.910Z,5.63
2023-05-21T18:07:28.556Z,5.50
2023-05-21T18:09:55.186Z,5.75
2023-05-21T18:12:21.854Z,5.75
2023-05-21T18:14:48.442Z,5.40
2023-05-21T18:17:15.079Z,5.05
2023-05-21T18:19:42.989Z,6.13
2023-05-21T18:22:09.622Z,5.47
2023-05-21T18:24:38.082Z,5.70
2023-05-21T18:27:04.886Z,6.05
2023-05-21T18:29:31.679Z,5.82
2023-05-21T18:31:58.362Z,6.00
2023-05-21T18:34:24.996Z,6.30
2023-05-21T18:36:54.496Z,6.57
2023-05-21T18:39:24.564Z,5.93
2023-05-21T18:41:55.794Z,5.90
2023-05-21T18:44:29.665Z,6.32
2023-05-21T18:46:57.742Z,5.78
2023-05-21T18:49:27.360Z,5.95
2023-05-21T18:51:55.324Z,6.55
2023-05-21T18:54:21.966Z,6.80
2023-05-21T18:56:48.607Z,6.47
2023-05-21T18:59:15.262Z,6.57
2023-05-21T19:01:42.056Z,6.72
2023-05-21T19:04:08.818Z,5.25
2023-05-21T19:06:36.091Z,6.07
2023-05-21T19:09:04.090Z,5.20
2023-05-21T19:11:34.294Z,5.13
2023-05-21T19:14:01.030Z,5.65
2023-05-21T19:16:27.720Z,6.10
2023-05-21T19:18:54.524Z,6.45
2023-05-21T19:21:24.297Z,6.70
2023-05-21T19:23:53.681Z,6.70
2023-05-21T19:26:22.669Z,6.50
2023-05-21T19:28:53.311Z,6.25
2023-05-21T19:31:20.547Z,5.97
2023-05-21T19:33:47.356Z,6.30
2023-05-21T19:36:14.447Z,5.65
2023-05-21T19:38:46.382Z,5.97
2023-05-21T19:41:13.209Z,6.13
2023-05-21T19:43:43.662Z,6.70
2023-05-21T19:46:10.498Z,6.00
2023-05-21T19:48:37.444Z,6.60
2023-05-21T19:51:04.371Z,6.63
2023-05-21T19:53:31.205Z,6.35
2023-05-21T19:55:57.949Z,6.63
2023-05-21T19:58:26.865Z,6.10
2023-05-21T20:00:55.859Z,5.90
2023-05-21T20:03:24.241Z,5.95
2023-05-21T20:05:51.095Z,4.72
2023-05-21T20:08:17.763Z,6.13
2023-05-21T20:10:44.506Z,5.10
2023-05-21T20:13:11.182Z,5.90
2023-05-21T20:15:37.825Z,5.20
2023-05-21T20:18:06.547Z,5.80
2023-05-21T20:20:37.175Z,6.28
2023-05-21T20:23:04.050Z,4.88
2023-05-21T20:25:33.630Z,7.03
2023-05-21T20:28:03.989Z,6.22
2023-05-21T20:30:32.970Z,6.32
2023-05-21T20:33:01.605Z,6.10
2023-05-21T20:35:30.231Z,4.60
2023-05-21T20:37:57.006Z,4.90
2023-05-21T20:40:23.694Z,5.90
2023-05-21T20:42:53.014Z,5.00
2023-05-21T20:47:50.316Z,6.43
2023-05-21T20:50:25.821Z,4.88
2023-05-21T20:52:53.862Z,4.90
2023-05-21T20:55:21.139Z,4.90
2023-05-21T20:57:50.807Z,5.63
2023-05-21T21:00:18.094Z,5.50
2023-05-21T21:02:45.003Z,5.22
2023-05-21T21:05:12.648Z,6.57
2023-05-21T21:07:39.325Z,5.05
2023-05-21T21:10:08.555Z,4.88
2023-05-21T21:12:35.169Z,5.82
2023-05-21T21:15:01.791Z,4.80
2023-05-21T21:17:28.537Z,6.03
2023-05-21T21:19:55.356Z,6.20
2023-05-21T21:22:22.159Z,5.00
2023-05-21T21:24:48.890Z,5.70
2023-05-21T21:27:16.863Z,4.70
2023-05-21T21:29:44.160Z,5.68
2023-05-21T21:32:10.866Z,5.88
2023-05-21T21:34:37.515Z,5.90
2023-05-21T21:37:04.544Z,6.07
2023-05-21T21:39:31.137Z,4.78
2023-05-21T21:41:57.831Z,5.45
2023-05-21T21:44:25.927Z,6.15
2023-05-21T21:46:52.581Z,4.50
2023-05-21T21:49:19.396Z,5.45
2023-05-21T21:51:49.010Z,4.90
2023-05-21T21:54:15.732Z,6.18
2023-05-21T21:56:42.446Z,5.30
2023-05-21T21:59:09.143Z,4.25
2023-05-21T22:01:37.354Z,5.90
2023-05-21T22:04:04.257Z,4.05
2023-05-21T22:06:31.301Z,5.35
2023-05-21T22:08:57.938Z,6.32
2023-05-21T22:11:24.553Z,5.47
2023-05-21T22:13:51.185Z,5.97
2023-05-21T22:16:17.826Z,5.43
2023-05-21T22:18:46.085Z,4.72
2023-05-21T22:21:14.275Z,4.63
2023-05-21T22:23:41.239Z,5.70
2023-05-21T22:26:09.011Z,6.13
2023-05-21T22:28:35.774Z,5.45
2023-05-21T22:31:02.600Z,5.25
2023-05-21T22:33:29.387Z,6.03
2023-05-21T22:35:58.045Z,5.78
2023-05-21T22:38:24.651Z,5.80
2023-05-21T22:40:51.378Z,5.75
2023-05-21T22:43:18.161Z,5.85
2023-05-21T22:45:44.797Z,5.15
2023-05-21T22:48:11.465Z,5.70
2023-05-21T22:50:39.136Z,5.65
2023-05-21T22:53:07.296Z,5.43
2023-05-21T22:55:33.906Z,5.15
2023-05-21T22:58:00.720Z,5.40
2023-05-21T23:00:27.438Z,4.53
2023-05-21T23:02:54.822Z,5.18
2023-05-21T23:05:21.793Z,4.88
2023-05-21T23:07:48.519Z,5.43
2023-05-21T23:10:16.814Z,5.95
2023-05-21T23:12:43.453Z,6.25
2023-05-21T23:15:10.990Z,6.30
2023-05-21T23:17:37.861Z,6.15
2023-05-21T23:20:05.822Z,5.55
2023-05-21T23:22:32.722Z,5.50
2023-05-21T23:24:59.549Z,5.32
2023-05-21T23:27:27.593Z,6.15
2023-05-21T23:29:54.221Z,4.47
2023-05-21T23:32:20.893Z,4.57
2023-05-21T23:34:48.277Z,5.90
2023-05-21T23:37:15.158Z,5.90
2023-05-21T23:39:41.963Z,6.22
2023-05-21T23:42:08.644Z,4.93
2023-05-21T23:44:36.640Z,5.85
2023-05-21T23:47:03.390Z,4.97
2023-05-21T23:49:30.021Z,4.80
2023-05-21T23:51:56.772Z,4.78
2023-05-21T23:54:23.425Z,5.70
2023-05-21T23:56:50.137Z,5.18
2023-05-21T23:59:18.334Z,4.82
